createdAt,value
2018-07-05T00:00:08.629Z,84.09
2018-07-05T00:03:29.771Z,83.58
2018-07-05T00:06:51.033Z,84.03
2018-07-05T00:10:12.284Z,84.95
2018-07-05T00:13:33.774Z,84.69
2018-07-05T00:16:55.102Z,85.47
2018-07-05T00:20:17.000Z,86.03
2018-07-05T00:23:38.412Z,85.97
2018-07-05T00:26:59.525Z,85.72
2018-07-05T00:30:20.752Z,85.78
2018-07-05T00:33:42.046Z,86.56
2018-07-05T00:36:57.373Z,85.74
2018-07-05T00:40:18.560Z,86.43
2018-07-05T00:43:39.882Z,86.24
2018-07-05T00:47:01.330Z,85.71
2018-07-05T00:50:22.778Z,84.74
2018-07-05T00:53:44.212Z,83.89
2018-07-05T00:57:05.469Z,83.58
2018-07-05T01:00:26.881Z,83.01
2018-07-05T01:03:48.127Z,83.02
2018-07-05T01:07:09.404Z,82.19
2018-07-05T01:10:30.624Z,81.61
2018-07-05T01:13:51.805Z,81.38
2018-07-05T01:17:13.200Z,81.35
2018-07-05T01:20:35.416Z,81.56
2018-07-05T01:23:56.834Z,81.24
2018-07-05T01:27:18.225Z,81.58
2018-07-05T01:30:39.535Z,82.43
2018-07-05T01:34:01.137Z,81.64
2018-07-05T01:37:22.525Z,81.61
2018-07-05T01:40:43.729Z,81.87
2018-07-05T01:44:04.982Z,82.09
2018-07-05T01:47:26.308Z,81.40
2018-07-05T01:50:47.882Z,80.58
2018-07-05T01:54:09.113Z,80.32
2018-07-05T01:57:30.436Z,80.39
2018-07-05T02:00:51.958Z,80.19
2018-07-05T02:04:13.380Z,80.17
2018-07-05T02:07:34.691Z,80.24
2018-07-05T02:10:56.086Z,80.20
2018-07-05T02:14:17.607Z,81.20
2018-07-05T02:17:38.850Z,80.36
2018-07-05T02:21:00.141Z,80.70
2018-07-05T02:24:21.425Z,80.57
2018-07-05T02:27:42.793Z,80.91
2018-07-05T02:31:04.112Z,81.38
2018-07-05T02:34:25.376Z,82.01
2018-07-05T02:37:51.878Z,81.53
2018-07-05T02:41:13.188Z,82.17
2018-07-05T02:44:34.452Z,82.07
2018-07-05T02:47:56.001Z,82.11
2018-07-05T02:51:17.236Z,82.32
2018-07-05T02:54:38.481Z,82.01
2018-07-05T02:57:59.725Z,83.10
2018-07-05T03:01:21.026Z,83.01
2018-07-05T03:04:42.469Z,82.64
2018-07-05T03:08:03.718Z,83.14
2018-07-05T03:11:25.014Z,82.24
2018-07-05T03:14:46.276Z,82.59
2018-07-05T03:18:01.721Z,82.88
2018-07-05T03:21:23.106Z,82.66
2018-07-05T03:24:44.517Z,82.46
2018-07-05T03:28:05.925Z,82.59
2018-07-05T03:31:27.340Z,82.49
2018-07-05T03:34:48.826Z,83.10
2018-07-05T03:38:10.374Z,82.34
2018-07-05T03:41:31.707Z,82.78
2018-07-05T03:44:53.160Z,82.01
2018-07-05T03:48:14.505Z,82.10
2018-07-05T03:51:35.944Z,82.67
2018-07-05T03:54:57.164Z,82.12
2018-07-05T03:58:18.467Z,82.77
2018-07-05T04:01:39.836Z,83.06
2018-07-05T04:05:01.150Z,82.65
2018-07-05T04:08:22.613Z,83.47
2018-07-05T04:11:43.945Z,84.56
2018-07-05T04:15:05.161Z,84.98
2018-07-05T04:18:26.568Z,86.00
2018-07-05T04:21:47.793Z,86.12
2018-07-05T04:25:09.170Z,86.18
2018-07-05T04:28:30.685Z,86.33
2018-07-05T04:31:51.936Z,87.18
2018-07-05T04:35:13.267Z,86.91
2018-07-05T04:38:34.469Z,85.47
2018-07-05T04:41:55.785Z,85.66
2018-07-05T04:45:17.270Z,84.38
2018-07-05T04:48:38.678Z,84.98
2018-07-05T04:51:59.940Z,84.35
2018-07-05T04:55:21.323Z,85.22
2018-07-05T04:58:42.606Z,84.75
2018-07-05T05:02:03.894Z,84.16
2018-07-05T05:05:25.265Z,84.44
2018-07-05T05:08:46.382Z,84.33
2018-07-05T05:12:07.634Z,84.98
2018-07-05T05:15:28.848Z,85.70
2018-07-05T05:18:50.317Z,85.73
2018-07-05T05:22:11.848Z,86.43
2018-07-05T05:25:33.197Z,86.06
2018-07-05T05:28:54.674Z,85.56
2018-07-05T05:32:16.230Z,84.90
2018-07-05T05:35:37.590Z,85.75
2018-07-05T05:38:59.151Z,85.47
2018-07-05T05:42:20.374Z,86.04
2018-07-05T05:45:41.718Z,84.98
2018-07-05T05:49:02.981Z,83.57
2018-07-05T05:52:24.153Z,84.47
2018-07-05T05:55:45.368Z,85.37
2018-07-05T05:59:06.713Z,87.00
2018-07-05T06:02:28.076Z,89.13
2018-07-05T06:05:49.349Z,89.54
2018-07-05T06:09:10.589Z,88.19
2018-07-05T06:12:31.861Z,87.69
2018-07-05T06:15:53.149Z,87.73
2018-07-05T06:19:14.546Z,88.79
2018-07-05T06:22:35.933Z,87.74
2018-07-05T06:25:57.177Z,85.84
2018-07-05T06:29:18.551Z,85.60
2018-07-05T06:32:39.953Z,84.63
2018-07-05T06:36:01.200Z,83.46
2018-07-05T06:39:22.372Z,85.39
2018-07-05T06:42:43.581Z,84.92
2018-07-05T06:46:05.506Z,85.49
2018-07-05T06:49:27.006Z,86.22
2018-07-05T06:52:48.521Z,84.63
2018-07-05T06:56:09.936Z,85.80
2018-07-05T06:59:31.192Z,84.79
2018-07-05T07:02:52.639Z,84.05
2018-07-05T07:06:07.917Z,84.24
2018-07-05T07:09:29.286Z,84.69
2018-07-05T07:12:50.798Z,85.76
2018-07-05T07:16:12.229Z,87.20
2018-07-05T07:19:33.634Z,87.32
2018-07-05T07:22:55.041Z,88.02
2018-07-05T07:26:16.390Z,89.02
2018-07-05T07:29:37.685Z,87.91
2018-07-05T07:32:58.912Z,87.67
2018-07-05T07:36:20.325Z,89.19
2018-07-05T07:39:41.629Z,89.56
2018-07-05T07:42:44.397Z,87.21
2018-07-05T07:45:47.276Z,87.83
2018-07-05T07:48:49.975Z,86.63
2018-07-05T07:51:52.770Z,85.40
2018-07-05T07:54:55.537Z,84.29
2018-07-05T07:57:58.572Z,84.71
2018-07-05T08:01:01.339Z,82.30
2018-07-05T08:04:04.125Z,80.09
2018-07-05T08:07:06.922Z,77.90
2018-07-05T08:10:09.716Z,78.59
2018-07-05T08:13:12.469Z,78.19
2018-07-05T08:16:15.255Z,78.71
2018-07-05T08:19:18.077Z,78.28
2018-07-05T08:22:20.858Z,78.42
2018-07-05T08:25:23.641Z,78.06
2018-07-05T08:28:26.404Z,77.76
2018-07-05T08:31:29.221Z,78.33
2018-07-05T08:34:31.972Z,78.68
2018-07-05T08:37:34.749Z,77.99
2018-07-05T08:40:37.529Z,78.00
2018-07-05T08:43:40.296Z,78.50
2018-07-05T08:46:43.449Z,78.25
2018-07-05T08:49:46.216Z,78.20
2018-07-05T08:52:49.015Z,77.24
2018-07-05T08:55:51.796Z,77.71
2018-07-05T08:58:54.613Z,77.54
2018-07-05T09:01:57.394Z,77.69
2018-07-05T09:05:00.162Z,79.00
2018-07-05T09:08:02.940Z,78.55
2018-07-05T09:11:05.721Z,79.19
2018-07-05T09:14:08.472Z,78.63
2018-07-05T09:17:11.266Z,78.65
2018-07-05T09:20:14.073Z,78.88
2018-07-05T09:23:16.957Z,78.96
2018-07-05T09:26:19.683Z,77.44
2018-07-05T09:29:22.474Z,77.28
2018-07-05T09:32:25.540Z,78.79
2018-07-05T09:35:28.336Z,79.02
2018-07-05T09:38:31.122Z,77.49
2018-07-05T09:41:34.618Z,78.14
2018-07-05T09:44:37.633Z,75.08
2018-07-05T09:47:40.408Z,74.72
2018-07-05T09:50:43.440Z,73.98
2018-07-05T09:53:46.249Z,73.97
2018-07-05T09:56:49.016Z,74.04
2018-07-05T09:59:51.801Z,74.47
2018-07-05T10:02:54.585Z,74.78
2018-07-05T10:05:57.368Z,75.03
2018-07-05T10:09:00.142Z,75.77
2018-07-05T10:12:02.914Z,75.71
2018-07-05T10:15:05.706Z,74.37
2018-07-05T10:18:08.461Z,73.80
2018-07-05T10:21:11.265Z,73.93
2018-07-05T10:24:14.111Z,74.75
2018-07-05T10:27:16.889Z,76.03
2018-07-05T10:30:38.252Z,75.17
2018-07-05T10:33:47.825Z,74.10
2018-07-05T10:36:50.619Z,72.86
2018-07-05T10:40:12.005Z,72.68
2018-07-05T10:43:33.420Z,72.53
2018-07-05T10:46:54.727Z,72.68
2018-07-05T10:50:16.046Z,73.47
2018-07-05T10:53:37.297Z,74.55
2018-07-05T10:56:58.686Z,75.79
2018-07-05T11:00:20.080Z,75.33
2018-07-05T11:03:41.308Z,75.88
2018-07-05T11:07:02.698Z,74.94
2018-07-05T11:10:23.852Z,73.60
2018-07-05T11:13:45.249Z,72.44
2018-07-05T11:17:06.577Z,72.96
2018-07-05T11:20:28.049Z,73.92
2018-07-05T11:23:49.285Z,75.29
2018-07-05T11:27:10.708Z,75.67
2018-07-05T11:30:32.157Z,75.15
2018-07-05T11:33:53.373Z,75.21
2018-07-05T11:37:14.729Z,76.17
2018-07-05T11:40:36.017Z,74.32
2018-07-05T11:43:51.224Z,74.40
2018-07-05T11:47:12.565Z,74.11
2018-07-05T11:50:33.912Z,74.34
2018-07-05T11:53:55.301Z,74.56
2018-07-05T11:57:16.653Z,74.87
2018-07-05T12:00:37.903Z,76.08
2018-07-05T12:03:59.247Z,76.06
2018-07-05T12:07:20.721Z,74.69
2018-07-05T12:10:42.133Z,72.85
2018-07-05T12:14:03.343Z,73.00
2018-07-05T12:17:24.756Z,70.92
2018-07-05T12:20:46.128Z,69.75
2018-07-05T12:24:07.643Z,71.55
2018-07-05T12:27:28.889Z,71.50
2018-07-05T12:30:50.292Z,70.09
2018-07-05T12:34:11.688Z,71.27
2018-07-05T12:37:32.989Z,72.35
2018-07-05T12:40:54.256Z,72.44
2018-07-05T12:44:15.720Z,70.31
2018-07-05T12:47:37.052Z,71.21
2018-07-05T12:50:58.309Z,70.59
2018-07-05T12:54:19.580Z,70.31
2018-07-05T12:57:40.790Z,70.08
2018-07-05T13:01:02.041Z,70.74
2018-07-05T13:04:23.595Z,69.43
2018-07-05T13:07:44.714Z,70.07
2018-07-05T13:11:06.089Z,70.80
2018-07-05T13:14:27.798Z,71.77
2018-07-05T13:17:49.253Z,70.83
2018-07-05T13:21:10.557Z,71.69
2018-07-05T13:24:31.872Z,72.25
2018-07-05T13:27:53.260Z,72.28
2018-07-05T13:31:14.821Z,73.35
2018-07-05T13:34:30.265Z,74.09
2018-07-05T13:37:51.568Z,73.83
2018-07-05T13:41:12.745Z,74.56
2018-07-05T13:44:33.942Z,74.61
2018-07-05T13:47:49.279Z,74.06
2018-07-05T13:51:10.778Z,73.20
2018-07-05T13:54:32.119Z,72.33
2018-07-05T13:57:53.655Z,71.27
2018-07-05T14:01:15.174Z,71.81
2018-07-05T14:04:36.526Z,72.07
2018-07-05T14:07:57.871Z,73.10
2018-07-05T14:11:19.370Z,71.18
2018-07-05T14:14:40.663Z,70.91
2018-07-05T14:18:01.842Z,72.10
2018-07-05T14:21:23.022Z,73.13
2018-07-05T14:24:44.491Z,73.53
2018-07-05T14:28:05.841Z,73.67
2018-07-05T14:31:27.266Z,72.87
2018-07-05T14:34:48.612Z,73.04
2018-07-05T14:38:10.009Z,71.58
2018-07-05T14:41:31.236Z,72.11
2018-07-05T14:44:52.354Z,70.83
2018-07-05T14:48:13.625Z,70.18
2018-07-05T14:51:34.857Z,69.67
2018-07-05T14:54:56.052Z,70.64
2018-07-05T14:58:17.396Z,71.75
2018-07-05T15:01:38.719Z,70.93
2018-07-05T15:04:59.972Z,73.01
2018-07-05T15:08:21.289Z,72.33
2018-07-05T15:11:42.585Z,72.61
2018-07-05T15:15:03.849Z,73.04
2018-07-05T15:18:25.321Z,73.26
2018-07-05T15:21:46.610Z,72.75
2018-07-05T15:25:07.782Z,73.28
2018-07-05T15:28:29.089Z,72.37
2018-07-05T15:31:44.519Z,73.73
2018-07-05T15:35:05.855Z,73.74
2018-07-05T15:38:27.148Z,73.37
2018-07-05T15:41:48.559Z,73.90
2018-07-05T15:45:10.046Z,74.13
2018-07-05T15:48:31.427Z,73.66
2018-07-05T15:51:52.888Z,73.94
2018-07-05T15:55:14.200Z,74.55
2018-07-05T15:58:35.617Z,74.60
2018-07-05T16:01:57.273Z,74.08
2018-07-05T16:05:18.724Z,73.91
2018-07-05T16:08:39.975Z,73.71
2018-07-05T16:12:01.246Z,73.44
2018-07-05T16:15:22.589Z,73.28
2018-07-05T16:18:43.968Z,74.22
2018-07-05T16:22:05.307Z,73.65
2018-07-05T16:25:26.597Z,75.07
2018-07-05T16:28:47.866Z,75.96
2018-07-05T16:32:09.312Z,75.77
2018-07-05T16:35:30.576Z,75.31
2018-07-05T16:38:51.904Z,75.86
2018-07-05T16:42:13.193Z,75.44
2018-07-05T16:45:34.444Z,75.17
2018-07-05T16:48:55.642Z,75.89
2018-07-05T16:52:16.850Z,76.63
2018-07-05T16:55:38.234Z,76.21
2018-07-05T16:58:59.584Z,75.75
2018-07-05T17:02:20.860Z,76.61
2018-07-05T17:05:42.013Z,76.21
2018-07-05T17:09:03.401Z,76.33
2018-07-05T17:12:24.812Z,76.89
2018-07-05T17:15:46.543Z,77.09
2018-07-05T17:19:08.100Z,76.23
2018-07-05T17:22:29.393Z,76.76
2018-07-05T17:25:51.355Z,76.70
2018-07-05T17:29:12.686Z,76.62
2018-07-05T17:32:33.853Z,75.91
2018-07-05T17:35:55.319Z,76.26
2018-07-05T17:39:16.668Z,76.29
2018-07-05T17:42:38.040Z,76.27
2018-07-05T17:45:59.513Z,76.33
2018-07-05T17:49:20.897Z,77.46
2018-07-05T17:52:42.273Z,78.14
2018-07-05T17:56:03.618Z,78.57
2018-07-05T17:59:24.869Z,78.91
2018-07-05T18:02:46.260Z,79.86
2018-07-05T18:06:07.612Z,79.86
2018-07-05T18:09:28.893Z,80.58
2018-07-05T18:12:50.145Z,81.15
2018-07-05T18:16:11.269Z,81.86
2018-07-05T18:19:32.765Z,82.28
2018-07-05T18:22:54.150Z,82.40
2018-07-05T18:26:15.478Z,82.61
2018-07-05T18:29:30.754Z,83.39
2018-07-05T18:32:52.042Z,82.50
2018-07-05T18:36:13.386Z,81.63
2018-07-05T18:39:34.702Z,80.47
2018-07-05T18:42:55.890Z,80.72
2018-07-05T18:46:17.455Z,80.33
2018-07-05T18:49:32.796Z,80.85
2018-07-05T18:52:54.056Z,80.78
2018-07-05T18:56:15.390Z,81.00
2018-07-05T18:59:36.757Z,80.01
2018-07-05T19:02:58.093Z,80.27
2018-07-05T19:06:19.352Z,80.31
2018-07-05T19:09:40.600Z,80.09
2018-07-05T19:13:02.067Z,79.97
2018-07-05T19:16:23.549Z,80.05
2018-07-05T19:19:44.878Z,80.44
2018-07-05T19:23:06.545Z,79.96
2018-07-05T19:26:27.877Z,80.80
2018-07-05T19:29:49.305Z,81.77
2018-07-05T19:33:10.962Z,81.45
2018-07-05T19:36:32.137Z,81.53
2018-07-05T19:39:53.340Z,81.60
2018-07-05T19:43:14.607Z,82.18
2018-07-05T19:46:36.093Z,82.22
2018-07-05T19:49:57.470Z,82.40
2018-07-05T19:53:18.921Z,82.14
2018-07-05T19:56:40.181Z,81.93
2018-07-05T20:00:01.503Z,81.79
2018-07-05T20:03:22.837Z,82.12
2018-07-05T20:06:44.669Z,82.92
2018-07-05T20:10:05.939Z,82.32
2018-07-05T20:13:27.413Z,82.54
2018-07-05T20:16:48.546Z,83.27
2018-07-05T20:20:09.673Z,82.75
2018-07-05T20:23:30.917Z,82.85
2018-07-05T20:26:52.482Z,82.31
2018-07-05T20:30:13.925Z,82.64
2018-07-05T20:33:35.086Z,82.04
2018-07-05T20:36:56.268Z,82.79
2018-07-05T20:40:17.408Z,82.10
2018-07-05T20:43:38.820Z,82.28
2018-07-05T20:47:00.166Z,82.08
2018-07-05T20:50:21.327Z,82.48
2018-07-05T20:53:36.520Z,81.79
2018-07-05T20:56:58.053Z,82.00
2018-07-05T21:00:19.556Z,81.13
2018-07-05T21:03:40.913Z,81.69
2018-07-05T21:07:02.124Z,81.10
2018-07-05T21:10:23.513Z,80.69
2018-07-05T21:13:44.924Z,80.59
2018-07-05T21:17:06.281Z,80.51
2018-07-05T21:20:27.818Z,80.19
2018-07-05T21:23:49.252Z,79.82
2018-07-05T21:27:10.513Z,78.85
2018-07-05T21:30:31.831Z,78.67
2018-07-05T21:33:53.254Z,78.15
2018-07-05T21:37:14.549Z,78.50
2018-07-05T21:40:35.860Z,78.05
2018-07-05T21:43:57.199Z,77.87
2018-07-05T21:47:18.478Z,78.17
2018-07-05T21:50:39.840Z,78.53
2018-07-05T21:54:01.155Z,77.95
2018-07-05T21:57:22.468Z,78.41
2018-07-05T22:00:43.721Z,78.61
2018-07-05T22:04:05.125Z,78.27
2018-07-05T22:07:26.523Z,78.71
2018-07-05T22:10:47.837Z,78.34
2018-07-05T22:14:09.077Z,78.77
2018-07-05T22:17:35.485Z,79.30
2018-07-05T22:21:02.027Z,79.96
2018-07-05T22:24:28.585Z,80.29
2018-07-05T22:27:55.413Z,80.23
2018-07-05T22:31:22.057Z,80.66
2018-07-05T22:34:43.298Z,80.06
2018-07-05T22:38:04.549Z,81.10
2018-07-05T22:41:25.885Z,81.47
2018-07-05T22:44:50.194Z,80.49
2018-07-05T22:48:11.566Z,81.17
2018-07-05T22:51:32.867Z,81.32
2018-07-05T22:54:54.183Z,80.94
2018-07-05T22:58:15.308Z,81.19
2018-07-05T23:01:36.631Z,80.85
2018-07-05T23:04:58.025Z,80.81
2018-07-05T23:08:19.372Z,80.32
2018-07-05T23:11:40.616Z,80.25
2018-07-05T23:15:01.860Z,80.87
2018-07-05T23:18:23.074Z,80.02
2018-07-05T23:21:44.409Z,81.13
2018-07-05T23:25:06.208Z,81.42
2018-07-05T23:28:27.597Z,81.52
2018-07-05T23:31:48.958Z,81.88
2018-07-05T23:35:10.397Z,81.72
2018-07-05T23:38:31.644Z,82.41
2018-07-05T23:41:52.817Z,81.77
2018-07-05T23:45:13.976Z,82.75
2018-07-05T23:48:35.309Z,83.05
2018-07-05T23:51:56.760Z,82.39
2018-07-05T23:55:18.101Z,82.63
2018-07-05T23:58:39.410Z,82.86
